createdAt,value
2023-02-26T00:01:24.936Z,13.48
2023-02-26T00:03:53.523Z,7.90
2023-02-26T00:06:20.902Z,12.30
2023-02-26T00:08:47.579Z,8.98
2023-02-26T00:11:14.380Z,5.68
2023-02-26T00:13:44.026Z,8.57
2023-02-26T00:16:35.331Z,13.05
2023-02-26T00:19:05.160Z,6.35
2023-02-26T00:21:33.418Z,7.55
2023-02-26T00:24:00.845Z,8.27
2023-02-26T00:26:29.525Z,6.07
2023-02-26T00:28:57.147Z,8.60
2023-02-26T00:31:27.012Z,6.90
2023-02-26T00:33:55.276Z,12.70
2023-02-26T00:36:24.153Z,6.28
2023-02-26T00:39:29.495Z,7.47
2023-02-26T00:41:56.522Z,9.75
2023-02-26T00:44:23.532Z,7.60
2023-02-26T00:47:13.827Z,9.90
2023-02-26T00:50:01.591Z,6.20
2023-02-26T00:52:39.096Z,9.23
2023-02-26T00:55:05.981Z,7.25
2023-02-26T00:57:32.503Z,9.75
2023-02-26T00:59:59.130Z,4.85
2023-02-26T01:02:26.069Z,10.57
2023-02-26T01:04:52.915Z,8.68
2023-02-26T01:07:24.517Z,9.32
2023-02-26T01:09:51.597Z,7.03
2023-02-26T01:12:18.544Z,3.90
2023-02-26T01:14:47.434Z,7.15
2023-02-26T01:17:20.093Z,7.80
2023-02-26T01:19:55.710Z,11.45
2023-02-26T01:22:33.508Z,10.73
2023-02-26T01:25:04.917Z,7.65
2023-02-26T01:27:32.067Z,8.35
2023-02-26T01:29:59.044Z,7.45
2023-02-26T01:32:43.785Z,7.50
2023-02-26T01:35:28.719Z,8.27
2023-02-26T01:38:14.886Z,9.00
2023-02-26T01:41:12.827Z,6.78
2023-02-26T01:43:51.192Z,8.02
2023-02-26T01:46:51.333Z,7.20
2023-02-26T01:49:19.267Z,2.97
2023-02-26T01:52:07.371Z,15.27
2023-02-26T01:54:37.329Z,8.27
2023-02-26T01:57:09.335Z,9.30
2023-02-26T01:59:43.865Z,7.03
2023-02-26T02:02:13.400Z,10.35
2023-02-26T02:04:40.837Z,4.80
2023-02-26T02:07:07.860Z,5.88
2023-02-26T02:09:35.055Z,11.32
2023-02-26T02:12:04.354Z,5.80
2023-02-26T02:15:12.983Z,6.30
2023-02-26T02:17:48.689Z,8.50
2023-02-26T02:20:57.162Z,4.85
2023-02-26T02:23:43.474Z,3.10
2023-02-26T02:26:16.015Z,7.15
2023-02-26T02:28:54.352Z,5.97
2023-02-26T02:31:29.953Z,4.93
2023-02-26T02:34:23.861Z,9.43
2023-02-26T02:36:59.293Z,10.20
2023-02-26T02:39:42.268Z,6.35
2023-02-26T02:42:23.082Z,4.82
2023-02-26T02:44:57.721Z,11.00
2023-02-26T02:47:26.357Z,7.95
2023-02-26T02:50:08.087Z,11.32
2023-02-26T02:53:07.853Z,6.45
2023-02-26T02:55:38.919Z,7.82
2023-02-26T02:58:11.617Z,7.35
2023-02-26T03:00:44.453Z,8.52
2023-02-26T03:03:26.531Z,10.88
2023-02-26T03:05:53.444Z,8.23
2023-02-26T03:08:24.866Z,8.27
2023-02-26T03:10:51.491Z,10.02
2023-02-26T03:13:21.147Z,7.18
2023-02-26T03:16:20.080Z,6.00
2023-02-26T03:19:36.391Z,8.40
2023-02-26T03:22:28.782Z,6.05
2023-02-26T03:25:07.839Z,9.52
2023-02-26T03:27:34.412Z,7.03
2023-02-26T03:30:10.913Z,7.60
2023-02-26T03:32:47.678Z,5.75
2023-02-26T03:35:26.848Z,4.85
2023-02-26T03:37:59.549Z,8.45
2023-02-26T03:40:35.433Z,11.27
2023-02-26T03:43:10.766Z,7.90
2023-02-26T03:45:41.270Z,6.40
2023-02-26T03:48:11.161Z,10.55
2023-02-26T03:50:45.359Z,9.05
2023-02-26T03:53:17.546Z,15.10
2023-02-26T03:56:02.750Z,4.50
2023-02-26T03:58:29.475Z,1.13
2023-02-26T04:01:02.236Z,10.93
2023-02-26T04:03:43.312Z,3.20
2023-02-26T04:06:10.608Z,9.70
2023-02-26T04:08:37.516Z,15.05
2023-02-26T04:11:10.049Z,5.25
2023-02-26T04:13:37.253Z,5.35
2023-02-26T04:16:04.703Z,12.05
2023-02-26T04:18:31.549Z,6.85
2023-02-26T04:20:58.206Z,11.27
2023-02-26T04:23:24.765Z,2.05
2023-02-26T04:25:51.778Z,9.10
2023-02-26T04:28:18.456Z,9.23
2023-02-26T04:30:45.211Z,8.57
2023-02-26T04:33:13.217Z,7.40
2023-02-26T04:35:39.967Z,9.35
2023-02-26T04:38:06.647Z,8.43
2023-02-26T04:40:33.404Z,6.63
2023-02-26T04:42:59.947Z,6.15
2023-02-26T04:45:26.668Z,12.60
2023-02-26T04:47:53.661Z,10.15
2023-02-26T04:50:20.285Z,14.00
2023-02-26T04:52:46.825Z,15.73
2023-02-26T04:55:13.401Z,11.68
2023-02-26T04:57:40.030Z,14.13
2023-02-26T05:00:09.998Z,9.75
2023-02-26T05:02:37.114Z,5.22
2023-02-26T05:05:03.933Z,13.93
2023-02-26T05:07:30.652Z,14.45
2023-02-26T05:09:57.537Z,12.25
2023-02-26T05:12:24.342Z,10.65
2023-02-26T05:14:50.886Z,13.82
2023-02-26T05:17:17.871Z,19.65
2023-02-26T05:19:44.577Z,5.38
2023-02-26T05:22:11.164Z,16.73
2023-02-26T05:24:37.835Z,14.50
2023-02-26T05:27:04.623Z,11.45
2023-02-26T05:29:31.311Z,11.13
2023-02-26T05:31:58.072Z,14.60
2023-02-26T05:34:24.688Z,12.70
2023-02-26T05:36:51.330Z,10.65
2023-02-26T05:39:17.968Z,12.60
2023-02-26T05:41:46.557Z,13.95
2023-02-26T05:44:13.674Z,7.22
2023-02-26T05:46:40.402Z,11.38
2023-02-26T05:49:07.117Z,10.07
2023-02-26T05:51:33.707Z,11.45
2023-02-26T05:54:00.555Z,5.65
2023-02-26T05:56:27.333Z,18.80
2023-02-26T05:58:54.035Z,14.88
2023-02-26T06:01:20.651Z,17.85
2023-02-26T06:03:47.185Z,15.65
2023-02-26T06:06:16.287Z,7.72
2023-02-26T06:08:42.821Z,12.15
2023-02-26T06:11:09.605Z,12.48
2023-02-26T06:13:36.376Z,9.38
2023-02-26T06:16:03.098Z,17.02
2023-02-26T06:18:29.773Z,10.32
2023-02-26T06:20:56.363Z,11.93
2023-02-26T06:23:23.082Z,15.00
2023-02-26T06:25:53.085Z,14.80
2023-02-26T06:28:20.208Z,15.13
2023-02-26T06:30:47.133Z,14.38
2023-02-26T06:33:13.817Z,10.25
2023-02-26T06:35:40.477Z,10.95
2023-02-26T06:38:07.048Z,12.93
2023-02-26T06:40:33.644Z,14.10
2023-02-26T06:43:00.358Z,13.23
2023-02-26T06:45:27.044Z,8.13
2023-02-26T06:47:54.247Z,11.82
2023-02-26T06:50:21.027Z,12.77
2023-02-26T06:52:47.739Z,9.30
2023-02-26T06:55:14.413Z,10.48
2023-02-26T06:57:40.952Z,13.70
2023-02-26T07:00:09.395Z,10.48
2023-02-26T07:02:36.438Z,18.23
2023-02-26T07:05:03.185Z,8.32
2023-02-26T07:07:30.207Z,20.42
2023-02-26T07:09:56.803Z,11.60
2023-02-26T07:12:23.427Z,16.67
2023-02-26T07:14:50.179Z,15.90
2023-02-26T07:17:20.830Z,5.65
2023-02-26T07:19:48.501Z,11.02
2023-02-26T07:22:15.514Z,15.10
2023-02-26T07:24:42.891Z,22.45
2023-02-26T07:27:10.674Z,7.20
2023-02-26T07:29:37.530Z,15.02
2023-02-26T07:32:05.271Z,19.10
2023-02-26T07:34:32.238Z,14.18
2023-02-26T07:36:59.276Z,16.75
2023-02-26T07:39:27.558Z,12.35
2023-02-26T07:41:54.870Z,11.68
2023-02-26T07:44:21.522Z,14.18
2023-02-26T07:46:48.170Z,16.08
2023-02-26T07:49:14.896Z,12.73
2023-02-26T07:51:45.777Z,16.67
2023-02-26T07:54:14.016Z,18.45
2023-02-26T07:56:42.896Z,17.65
2023-02-26T07:59:09.930Z,9.68
2023-02-26T08:01:36.991Z,14.32
2023-02-26T08:04:04.267Z,17.38
2023-02-26T08:06:31.079Z,11.80
2023-02-26T08:08:57.922Z,13.18
2023-02-26T08:11:24.599Z,12.43
2023-02-26T08:13:51.204Z,13.57
2023-02-26T08:16:17.896Z,12.98
2023-02-26T08:18:44.530Z,22.27
2023-02-26T08:21:11.828Z,22.92
2023-02-26T08:23:38.599Z,12.25
2023-02-26T08:26:10.496Z,9.80
2023-02-26T08:28:37.628Z,13.38
2023-02-26T08:31:04.951Z,19.17
2023-02-26T08:33:32.948Z,9.35
2023-02-26T08:36:01.794Z,13.55
2023-02-26T08:38:29.730Z,15.13
2023-02-26T08:40:56.774Z,23.67
2023-02-26T08:43:23.590Z,12.93
2023-02-26T08:45:56.498Z,14.18
2023-02-26T08:48:24.177Z,18.25
2023-02-26T08:50:51.397Z,16.02
2023-02-26T08:53:18.121Z,8.48
2023-02-26T08:55:49.093Z,15.60
2023-02-26T08:58:15.921Z,19.33
2023-02-26T09:00:42.466Z,15.25
2023-02-26T09:03:09.131Z,9.43
2023-02-26T09:05:35.753Z,15.02
2023-02-26T09:08:02.444Z,17.77
2023-02-26T09:10:29.336Z,15.48
2023-02-26T09:12:55.996Z,16.55
2023-02-26T09:15:22.720Z,12.30
2023-02-26T09:17:49.369Z,15.77
2023-02-26T09:20:16.407Z,12.10
2023-02-26T09:22:43.412Z,14.07
2023-02-26T09:25:10.713Z,15.38
2023-02-26T09:27:37.553Z,21.08
2023-02-26T09:30:05.571Z,19.40
2023-02-26T09:32:32.388Z,12.75
2023-02-26T09:34:59.279Z,24.77
2023-02-26T09:37:25.955Z,11.48
2023-02-26T09:39:54.810Z,14.80
2023-02-26T09:42:33.774Z,13.23
2023-02-26T09:45:00.769Z,23.67
2023-02-26T09:47:31.283Z,17.52
2023-02-26T09:50:11.623Z,20.65
2023-02-26T09:53:11.996Z,14.50
2023-02-26T09:55:45.193Z,21.05
2023-02-26T09:58:19.193Z,14.85
2023-02-26T10:00:51.656Z,13.90
2023-02-26T10:03:44.585Z,19.42
2023-02-26T10:06:23.543Z,15.90
2023-02-26T10:09:16.499Z,21.98
2023-02-26T10:11:55.979Z,16.50
2023-02-26T10:14:44.306Z,12.93
2023-02-26T10:17:19.542Z,15.50
2023-02-26T10:19:51.507Z,14.52
2023-02-26T10:22:30.073Z,16.58
2023-02-26T10:25:21.645Z,14.95
2023-02-26T10:28:10.838Z,14.70
2023-02-26T10:30:44.918Z,10.75
2023-02-26T10:33:20.669Z,20.13
2023-02-26T10:36:02.493Z,14.70
2023-02-26T10:38:31.876Z,11.52
2023-02-26T10:41:05.947Z,15.73
2023-02-26T10:43:39.337Z,12.32
2023-02-26T10:46:27.584Z,16.35
2023-02-26T10:49:36.656Z,15.60
2023-02-26T10:52:16.025Z,11.95
2023-02-26T10:54:58.188Z,14.00
2023-02-26T10:57:30.097Z,7.20
2023-02-26T10:59:56.614Z,15.88
2023-02-26T11:02:56.640Z,15.13
2023-02-26T11:05:29.661Z,17.55
2023-02-26T11:08:00.979Z,14.60
2023-02-26T11:10:39.709Z,13.85
2023-02-26T11:13:06.458Z,10.88
2023-02-26T11:15:33.126Z,15.90
2023-02-26T11:18:01.685Z,12.52
2023-02-26T11:20:42.141Z,11.73
2023-02-26T11:23:13.751Z,9.23
2023-02-26T11:25:40.594Z,14.55
2023-02-26T11:28:19.985Z,11.25
2023-02-26T11:30:49.182Z,13.95
2023-02-26T11:33:21.573Z,11.43
2023-02-26T11:35:48.897Z,21.23
2023-02-26T11:38:21.527Z,13.82
2023-02-26T11:40:52.664Z,17.80
2023-02-26T11:43:21.990Z,8.82
2023-02-26T11:45:54.157Z,9.20
2023-02-26T11:48:32.241Z,16.60
2023-02-26T11:51:01.978Z,8.77
2023-02-26T11:53:35.645Z,7.78
2023-02-26T11:56:13.813Z,14.18
2023-02-26T11:58:43.405Z,11.30
2023-02-26T12:01:12.825Z,8.55
2023-02-26T12:03:43.466Z,11.00
2023-02-26T12:06:17.941Z,6.97
2023-02-26T12:08:45.263Z,6.55
2023-02-26T12:11:30.472Z,12.68
2023-02-26T12:14:33.605Z,7.55
2023-02-26T12:17:18.302Z,7.93
2023-02-26T12:20:21.893Z,9.90
2023-02-26T12:23:26.299Z,1.95
2023-02-26T12:26:19.340Z,19.55
2023-02-26T12:29:03.154Z,10.50
2023-02-26T12:31:44.447Z,10.75
2023-02-26T12:34:36.107Z,11.90
2023-02-26T12:37:21.112Z,12.63
2023-02-26T12:40:30.834Z,11.32
2023-02-26T12:43:11.306Z,17.23
2023-02-26T12:45:57.558Z,16.27
2023-02-26T12:48:58.910Z,10.25
2023-02-26T12:51:47.260Z,8.90
2023-02-26T12:54:36.651Z,8.60
2023-02-26T12:57:27.596Z,10.88
2023-02-26T13:00:23.203Z,17.23
2023-02-26T13:03:17.986Z,10.10
2023-02-26T13:06:18.616Z,10.75
2023-02-26T13:09:20.497Z,11.65
2023-02-26T13:11:59.235Z,12.77
2023-02-26T13:14:38.321Z,19.05
2023-02-26T13:17:27.214Z,16.58
2023-02-26T13:20:01.602Z,10.32
2023-02-26T13:22:36.830Z,9.80
2023-02-26T13:25:16.568Z,14.90
2023-02-26T13:27:45.198Z,14.02
2023-02-26T13:30:23.823Z,12.68
2023-02-26T13:32:58.382Z,9.85
2023-02-26T13:35:38.189Z,17.40
2023-02-26T13:38:26.659Z,12.30
2023-02-26T13:41:11.802Z,9.55
2023-02-26T13:43:50.620Z,13.68
2023-02-26T13:46:26.724Z,11.30
2023-02-26T13:49:11.497Z,16.98
2023-02-26T13:51:38.160Z,10.50
2023-02-26T13:54:17.367Z,10.45
2023-02-26T13:56:47.074Z,23.33
2023-02-26T13:59:14.671Z,16.35
2023-02-26T14:02:22.661Z,14.73
2023-02-26T14:05:06.726Z,11.85
2023-02-26T14:07:56.210Z,15.55
2023-02-26T14:10:36.144Z,16.20
2023-02-26T14:13:18.881Z,17.83
2023-02-26T14:16:12.695Z,18.33
2023-02-26T14:18:51.539Z,11.48
2023-02-26T14:21:37.265Z,15.48
2023-02-26T14:24:13.529Z,12.63
2023-02-26T14:26:45.566Z,17.98
2023-02-26T14:29:16.832Z,11.00
2023-02-26T14:31:54.416Z,23.83
2023-02-26T14:34:26.287Z,16.15
2023-02-26T14:37:02.883Z,19.55
2023-02-26T14:39:35.125Z,15.18
2023-02-26T14:42:10.228Z,13.10
2023-02-26T14:44:41.889Z,11.98
2023-02-26T14:47:09.794Z,24.13
2023-02-26T14:49:39.550Z,20.10
2023-02-26T14:52:33.840Z,16.95
2023-02-26T14:55:09.321Z,14.02
2023-02-26T14:57:49.326Z,18.55
2023-02-26T15:00:25.306Z,13.13
2023-02-26T15:03:13.631Z,25.73
2023-02-26T15:06:13.614Z,23.45
2023-02-26T15:09:06.460Z,20.88
2023-02-26T15:11:48.320Z,13.35
2023-02-26T15:14:51.661Z,24.15
2023-02-26T15:17:40.651Z,23.30
2023-02-26T15:20:33.253Z,17.38
2023-02-26T15:23:24.154Z,22.27
2023-02-26T15:25:51.290Z,19.98
2023-02-26T15:28:28.947Z,26.27
2023-02-26T15:30:57.299Z,14.00
2023-02-26T15:33:25.697Z,24.65
2023-02-26T15:35:54.721Z,19.35
2023-02-26T15:38:21.613Z,23.88
2023-02-26T15:40:50.865Z,24.17
2023-02-26T15:43:27.085Z,21.58
2023-02-26T15:45:58.835Z,26.38
2023-02-26T15:48:32.564Z,24.35
2023-02-26T15:51:02.730Z,20.05
2023-02-26T15:53:43.555Z,13.90
2023-02-26T15:56:22.072Z,19.77
2023-02-26T15:58:55.621Z,15.07
2023-02-26T16:01:28.082Z,12.38
2023-02-26T16:03:58.466Z,16.80
2023-02-26T16:06:30.328Z,20.33
2023-02-26T16:08:58.161Z,21.20
2023-02-26T16:11:29.612Z,25.65
2023-02-26T16:13:57.109Z,15.85
2023-02-26T16:16:35.117Z,16.05
2023-02-26T16:19:01.816Z,27.48
2023-02-26T16:21:36.598Z,17.75
2023-02-26T16:24:07.161Z,21.17
2023-02-26T16:26:43.481Z,21.85
2023-02-26T16:29:21.021Z,23.00
2023-02-26T16:31:58.497Z,19.75
2023-02-26T16:34:37.195Z,16.92
2023-02-26T16:37:34.245Z,23.75
2023-02-26T16:40:33.759Z,23.60
2023-02-26T16:43:03.730Z,23.90
2023-02-26T16:45:36.494Z,25.42
2023-02-26T16:48:27.774Z,24.13
2023-02-26T16:51:20.634Z,33.53
2023-02-26T16:53:55.280Z,27.08
2023-02-26T16:56:34.642Z,27.98
2023-02-26T16:59:21.510Z,32.22
2023-02-26T17:02:24.761Z,24.13
2023-02-26T17:04:57.791Z,23.30
2023-02-26T17:07:33.365Z,25.13
2023-02-26T17:10:16.781Z,22.88
2023-02-26T17:12:52.892Z,21.23
2023-02-26T17:15:21.383Z,23.60
2023-02-26T17:17:48.601Z,21.92
2023-02-26T17:20:15.257Z,23.15
2023-02-26T17:22:44.039Z,24.52
2023-02-26T17:25:19.333Z,18.25
2023-02-26T17:27:46.763Z,24.25
2023-02-26T17:30:18.764Z,23.77
2023-02-26T17:32:45.379Z,19.77
2023-02-26T17:35:14.275Z,23.42
2023-02-26T17:37:41.053Z,15.10
2023-02-26T17:40:45.344Z,20.60
2023-02-26T17:43:11.899Z,28.02
2023-02-26T17:45:40.571Z,20.88
2023-02-26T17:48:08.343Z,19.70
2023-02-26T17:50:40.736Z,18.17
2023-02-26T17:53:08.219Z,17.55
2023-02-26T17:55:37.427Z,13.38
2023-02-26T17:58:04.210Z,14.63
2023-02-26T18:00:31.453Z,14.55
2023-02-26T18:02:58.183Z,21.42
2023-02-26T18:05:27.678Z,16.65
2023-02-26T18:07:54.254Z,20.58
2023-02-26T18:10:24.956Z,23.90
2023-02-26T18:12:51.732Z,20.90
2023-02-26T18:15:18.312Z,16.17
2023-02-26T18:17:44.937Z,15.25
2023-02-26T18:20:22.481Z,21.88
2023-02-26T18:22:50.531Z,18.08
2023-02-26T18:25:17.532Z,27.48
2023-02-26T18:27:45.235Z,27.67
2023-02-26T18:30:24.340Z,45.45
2023-02-26T18:32:51.356Z,35.05
2023-02-26T18:35:18.217Z,39.42
2023-02-26T18:37:45.499Z,40.13
2023-02-26T18:40:18.070Z,40.05
2023-02-26T18:42:44.755Z,33.45
2023-02-26T18:45:11.749Z,20.50
2023-02-26T18:47:39.376Z,20.67
2023-02-26T18:50:07.610Z,25.77
2023-02-26T18:52:34.802Z,24.60
2023-02-26T18:55:03.148Z,15.80
2023-02-26T18:57:30.617Z,17.90
2023-02-26T18:59:57.603Z,16.95
2023-02-26T19:02:24.805Z,25.88
2023-02-26T19:04:51.971Z,14.90
2023-02-26T19:07:18.885Z,17.67
2023-02-26T19:09:45.738Z,15.93
2023-02-26T19:12:18.725Z,13.07
2023-02-26T19:14:45.617Z,16.20
2023-02-26T19:17:12.140Z,14.85
2023-02-26T19:19:41.076Z,18.85
2023-02-26T19:22:13.931Z,10.40
2023-02-26T19:24:41.979Z,19.08
2023-02-26T19:27:09.948Z,17.63
2023-02-26T19:29:37.438Z,9.63
2023-02-26T19:32:04.674Z,11.80
2023-02-26T19:34:31.869Z,23.77
2023-02-26T19:36:58.784Z,15.38
2023-02-26T19:39:26.760Z,25.00
2023-02-26T19:41:54.484Z,24.08
2023-02-26T19:44:22.756Z,16.88
2023-02-26T19:46:49.486Z,21.02
2023-02-26T19:49:16.753Z,16.98
2023-02-26T19:51:43.883Z,17.50
2023-02-26T19:54:12.638Z,24.20
2023-02-26T19:56:39.652Z,19.38
2023-02-26T19:59:06.394Z,19.20
2023-02-26T20:01:33.194Z,21.75
2023-02-26T20:04:01.098Z,18.90
2023-02-26T20:06:29.003Z,19.00
2023-02-26T20:08:55.587Z,21.95
2023-02-26T20:11:22.358Z,17.58
2023-02-26T20:13:49.084Z,24.25
2023-02-26T20:16:16.505Z,18.52
2023-02-26T20:18:45.744Z,20.27
2023-02-26T20:21:13.008Z,20.70
2023-02-26T20:23:40.356Z,23.42
2023-02-26T20:26:13.274Z,25.33
2023-02-26T20:28:41.243Z,21.35
2023-02-26T20:31:08.362Z,24.20
2023-02-26T20:33:37.378Z,18.23
2023-02-26T20:36:04.520Z,21.90
2023-02-26T20:38:31.316Z,24.35
2023-02-26T20:40:58.145Z,15.82
2023-02-26T20:43:25.199Z,23.73
2023-02-26T20:45:54.035Z,18.95
2023-02-26T20:48:21.117Z,12.93
2023-02-26T20:50:48.154Z,16.60
2023-02-26T20:53:14.880Z,16.40
2023-02-26T20:55:41.478Z,15.40
2023-02-26T20:58:08.158Z,23.77
2023-02-26T21:00:34.742Z,18.88
2023-02-26T21:03:01.325Z,21.70
2023-02-26T21:05:28.043Z,16.73
2023-02-26T21:07:54.718Z,18.17
2023-02-26T21:10:21.367Z,16.85
2023-02-26T21:12:48.219Z,19.08
2023-02-26T21:15:15.003Z,18.02
2023-02-26T21:17:42.900Z,19.25
2023-02-26T21:20:12.699Z,15.73
2023-02-26T21:22:39.994Z,15.13
2023-02-26T21:25:07.590Z,26.63
2023-02-26T21:27:35.141Z,20.75
2023-02-26T21:30:02.101Z,22.30
2023-02-26T21:32:28.770Z,21.02
2023-02-26T21:34:55.841Z,17.67
2023-02-26T21:37:22.450Z,22.70
2023-02-26T21:39:49.139Z,16.65
2023-02-26T21:42:16.087Z,17.38
2023-02-26T21:44:42.926Z,23.25
2023-02-26T21:47:10.414Z,18.85
2023-02-26T21:49:37.592Z,15.95
2023-02-26T21:52:06.259Z,21.45
2023-02-26T21:54:33.239Z,20.88
2023-02-26T21:56:59.838Z,17.65
2023-02-26T21:59:26.693Z,23.67
2023-02-26T22:01:53.642Z,19.63
2023-02-26T22:04:20.569Z,20.58
2023-02-26T22:06:47.284Z,26.00
2023-02-26T22:09:13.930Z,20.40
2023-02-26T22:11:40.559Z,21.52
2023-02-26T22:14:07.385Z,19.02
2023-02-26T22:16:34.070Z,23.00
2023-02-26T22:19:00.779Z,24.55
2023-02-26T22:21:27.660Z,26.52
2023-02-26T22:23:54.527Z,20.25
2023-02-26T22:26:21.341Z,18.83
2023-02-26T22:28:47.954Z,17.80
2023-02-26T22:31:14.958Z,18.80
2023-02-26T22:33:41.700Z,21.35
2023-02-26T22:36:08.487Z,16.75
2023-02-26T22:38:35.233Z,19.80
2023-02-26T22:41:01.846Z,32.10
2023-02-26T22:43:28.890Z,18.10
2023-02-26T22:45:55.673Z,18.52
2023-02-26T22:48:22.306Z,21.52
2023-02-26T22:50:50.277Z,18.00
2023-02-26T22:53:17.166Z,18.38
2023-02-26T22:55:43.896Z,23.45
2023-02-26T22:58:10.552Z,20.45
2023-02-26T23:00:37.120Z,17.95
2023-02-26T23:03:03.804Z,23.23
2023-02-26T23:05:30.345Z,14.65
2023-02-26T23:07:56.869Z,14.02
2023-02-26T23:10:23.499Z,17.33
2023-02-26T23:12:50.247Z,26.05
2023-02-26T23:15:16.990Z,19.17
2023-02-26T23:17:43.616Z,18.15
2023-02-26T23:20:13.988Z,21.00
2023-02-26T23:22:43.775Z,19.75
2023-02-26T23:25:12.248Z,17.65
2023-02-26T23:27:39.120Z,25.13
2023-02-26T23:30:06.213Z,21.35
2023-02-26T23:32:32.949Z,25.35
2023-02-26T23:34:59.819Z,18.75
2023-02-26T23:37:26.394Z,18.20
2023-02-26T23:39:53.245Z,17.95
2023-02-26T23:42:19.846Z,13.40
2023-02-26T23:44:46.579Z,20.10
2023-02-26T23:47:13.432Z,22.08
2023-02-26T23:49:40.032Z,18.73
2023-02-26T23:52:06.575Z,28.42
2023-02-26T23:54:33.818Z,20.17
2023-02-26T23:57:00.630Z,17.65
2023-02-26T23:59:27.253Z,14.57
